• Join FlightAware (Why Join?)
  • Login
  • US Flag 
12:49PM EDT


 

Airport Tracker/Info


-or-


 

Live Flight TrackerFlight Track Log ✈ MTN8311 ✈ 24-May-2013 ✈ KBWI - KEWR

Flight Track Log - Related Links

Times and Time Zones

All times are in EDT time to prevent confusion due to time zone crossing. See the MTN8311 flight status page for this flight to view local times or setup timezone preferences in your user account.

Time Position Orientation Groundspeed Altitude Reporting Facility
EDT Latitude Longitude Course Direction KTS MPH feet Rate Location/Type
10:25AM 39.2167 -76.7000 322° Northwest 90 104 2,200  Level Potomac TRACON
10:26AM 39.2500 -76.7167 339° North 87 100 3,200 900 Climbing Potomac TRACON
10:27AM 39.2667 -76.7333 322° Northwest 99 114 4,000 840 Climbing Potomac TRACON
10:28AM 39.2833 -76.7500 322° Northwest 113 130 4,900 540 Climbing Potomac TRACON
10:29AM 39.3167 -76.7667 339° North 143 165 5,100  Climbing Potomac TRACON
10:30AM 39.3667 -76.7667 360° North 142 163 5,000 -60 Descending Potomac TRACON
10:31AM 39.3833 -76.7333 57° Northeast 151 174 5,000  Level Potomac TRACON
10:32AM 39.4167 -76.6833 49° Northeast 156 180 5,100  Climbing Potomac TRACON
10:33AM 39.4333 -76.6333 67° East 159 183 5,000 -60 Descending Potomac TRACON
10:34AM 39.4667 -76.5833 49° Northeast 159 183 5,000  Level Potomac TRACON
10:35AM 39.4833 -76.5333 67° East 158 182 5,000  Level Potomac TRACON
10:36AM 39.5167 -76.4833 49° Northeast 156 180 5,100  Climbing Potomac TRACON
10:37AM 39.5333 -76.4333 67° East 159 183 5,000 -60 Descending Potomac TRACON
10:38AM 39.5667 -76.3833 49° Northeast 157 181 5,000  Level Potomac TRACON
10:39AM 39.5833 -76.3333 67° East 155 178 5,100  Climbing Potomac TRACON
10:40AM 39.6167 -76.3000 38° Northeast 157 181 5,000 -120 Descending Potomac TRACON
10:42AM 39.6500 -76.2000 67° East 161 185 4,900 -60 Descending Philadelphia TRACON
10:43AM 39.6833 -76.1500 49° Northeast 159 183 4,900  Level Philadelphia TRACON
10:44AM 39.7000 -76.1000 67° East 159 183 4,900  Level Philadelphia TRACON
10:45AM 39.7333 -76.0667 38° Northeast 157 181 4,900  Level Philadelphia TRACON
10:46AM 39.7500 -76.0167 67° East 159 183 5,000  Climbing Philadelphia TRACON
10:47AM 39.7833 -75.9500 57° Northeast 163 188 4,900 -60 Descending Philadelphia TRACON
10:48AM 39.8000 -75.9000 67° East 159 183 4,900  Level Philadelphia TRACON
10:49AM 39.8333 -75.8667 38° Northeast 156 180 4,900  Level Philadelphia TRACON
10:50AM 39.8500 -75.8000 72° East 156 180 4,900  Level Philadelphia TRACON
10:51AM 39.8667 -75.7667 57° Northeast 156 180 4,900  Level Philadelphia TRACON
10:52AM 39.9000 -75.7167 49° Northeast 158 182 4,900  Level Philadelphia TRACON
10:53AM 39.9167 -75.6667 66° East 156 180 5,000  Climbing Philadelphia TRACON
10:54AM 39.9500 -75.6167 49° Northeast 155 178 5,000  Level Philadelphia TRACON
10:55AM 39.9667 -75.5833 57° Northeast 159 183 5,000  Level Philadelphia TRACON
10:56AM 39.9833 -75.5167 72° East 157 181 5,000 -60 Level Philadelphia TRACON
10:57AM 40.0000 -75.4667 66° East 158 182 4,900  Descending Philadelphia TRACON
10:58AM 40.0333 -75.4167 49° Northeast 158 182 5,000  Climbing Philadelphia TRACON
10:59AM 40.0500 -75.3667 66° East 158 182 4,900  Descending Philadelphia TRACON
11:00AM 40.0667 -75.3333 57° Northeast 159 183 5,000  Climbing Philadelphia TRACON
11:01AM 40.1000 -75.2833 49° Northeast 159 183 4,900 -60 Descending Philadelphia TRACON
11:02AM 40.1167 -75.2333 66° East 158 182 4,900  Level Philadelphia TRACON
11:03AM 40.1333 -75.1667 72° East 160 184 4,900  Level Philadelphia TRACON
11:04AM 40.1667 -75.1167 49° Northeast 158 182 4,900  Level Philadelphia TRACON
11:05AM 40.1833 -75.0833 57° Northeast 157 181 4,900  Level Philadelphia TRACON
11:06AM 40.2000 -75.0333 66° East 157 181 5,000  Climbing Philadelphia TRACON
11:07AM 40.2167 -74.9833 66° East 159 183 4,900  Descending New York TRACON
11:08AM 40.2333 -74.9333 66° East 155 178 5,000  Climbing New York TRACON
11:09AM 40.2667 -74.9000 37° Northeast 157 181 5,000  Level New York TRACON
11:10AM 40.3000 -74.8333 57° Northeast 168 193 5,000  Level New York TRACON
11:11AM 40.3167 -74.8000 57° Northeast 168 193 5,000  Level New York TRACON
11:12AM 40.3333 -74.7333 72° East 169 194 5,000  Level New York TRACON
11:13AM 40.3667 -74.6833 51° Northeast 168 193 5,000  Level New York TRACON
11:14AM 40.3833 -74.6333 66° East 168 193 5,000 -60 Level New York TRACON
11:15AM 40.4000 -74.5667 72° East 170 196 4,900 -420 Descending New York TRACON
11:16AM 40.4167 -74.5167 66° East 176 203 4,200 -840 Descending New York TRACON
11:17AM 40.4500 -74.4667 49° Northeast 177 204 3,300 -600 Descending New York TRACON
11:18AM 40.4667 -74.4000 72° East 168 193 3,000 -180 Descending New York TRACON
11:19AM 40.4833 -74.3500 66° East 162 186 3,000  Level New York TRACON
11:20AM 40.5167 -74.2833 57° Northeast 167 192 3,000 -180 Level New York TRACON
11:21AM 40.5500 -74.2500 37° Northeast 170 196 2,700 -600 Descending New York TRACON
11:22AM 40.5833 -74.2333 21° North 163 188 1,900 -780 Descending New York TRACON
11:23AM 40.6167 -74.2000 37° Northeast 159 183 1,300 -840 Descending New York TRACON
11:24AM 40.6667 -74.1833 14° North 151 174 300 -960 Descending New York TRACON
11:26AM 40.6833 -74.1667 52° Northeast  Level FlightAware Approximate
11:33AM 40.6925 -74.1687 52° Northeast  Level Estimated